Time;durP1;ratioP1;P1;durP2;ratioP2;P2;SDS_P1;SDS_P2;PMS_P1;PMS_P2;Temp;Humidity;BMP_temperature;BMP_pressure;BME280_temperature;BME280_humidity;BME280_pressure;Samples;Min_cycle;Max_cycle;Signal;HPM_P1;HPM_P2
2022/06/07 00:02:00;;;;;;;2.37;2.20;;;;;;;22.60;52.94;98723.34;6958951;28;20304;-78
2022/06/07 00:05:21;;;;;;;3.50;2.60;;;;;;;22.55;53.72;98739.88;6968876;28;20238;-77
2022/06/07 00:08:44;;;;;;;2.70;2.50;;;;;;;22.52;52.43;98708.28;6951969;28;20775;-78
2022/06/07 00:12:06;;;;;;;3.10;2.80;;;;;;;22.58;53.74;98728.28;6950684;28;20282;-78
2022/06/07 00:15:28;;;;;;;5.90;2.77;;;;;;;22.64;52.56;98749.16;6956934;28;20302;-78
2022/06/07 00:18:49;;;;;;;3.20;2.50;;;;;;;22.86;52.49;98739.41;6949700;28;20303;-78
2022/06/07 00:22:11;;;;;;;2.90;2.70;;;;;;;22.62;53.03;98741.22;6949999;28;20260;-78
2022/06/07 00:25:34;;;;;;;4.27;2.50;;;;;;;22.31;53.70;98745.16;6950406;28;20300;-78
2022/06/07 00:28:56;;;;;;;4.43;2.97;;;;;;;22.19;53.61;98702.66;6949239;28;20292;-78
2022/06/07 00:32:18;;;;;;;5.20;2.60;;;;;;;22.74;52.38;98740.84;6949362;28;20311;-78
2022/06/07 00:35:40;;;;;;;3.80;2.37;;;;;;;22.78;52.00;98739.19;6949719;28;20221;-78
2022/06/07 00:39:02;;;;;;;2.77;2.57;;;;;;;22.87;50.90;98735.53;6947770;28;20694;-78
2022/06/07 00:42:25;;;;;;;3.57;2.50;;;;;;;22.62;52.04;98749.47;6950476;28;20287;-78
2022/06/07 00:45:46;;;;;;;2.70;2.50;;;;;;;22.72;52.42;98734.81;6950426;28;20280;-78
2022/06/07 00:49:08;;;;;;;4.20;2.40;;;;;;;22.91;51.48;98739.38;6949338;28;20262;-78
2022/06/07 00:52:31;;;;;;;2.73;2.53;;;;;;;22.69;52.64;98746.38;6949571;28;20556;-78
2022/06/07 00:55:54;;;;;;;3.93;2.60;;;;;;;22.44;54.04;98750.09;6947618;28;20791;-77
2022/06/07 00:59:17;;;;;;;3.47;2.43;;;;;;;22.46;53.52;98747.06;6950224;28;20233;-77
2022/06/07 01:02:38;;;;;;;4.33;2.60;;;;;;;22.74;52.74;98755.44;6954741;28;20222;-77
2022/06/07 01:10:43;;;;;;;2.50;2.30;;;;;;;22.41;51.68;98753.38;6949172;28;20238;-77
2022/06/07 01:13:23;;;;;;;4.37;2.20;;;;;;;22.88;50.49;98756.44;6947177;28;20206;-77
2022/06/07 01:16:46;;;;;;;4.17;2.30;;;;;;;22.72;49.42;98745.81;6947399;28;20296;-77
2022/06/07 01:20:09;;;;;;;2.63;2.37;;;;;;;22.46;52.01;98756.13;6946868;28;20288;-77
2022/06/07 01:23:32;;;;;;;3.97;2.00;;;;;;;22.12;50.66;98748.84;6947223;28;20354;-77
2022/06/07 01:26:53;;;;;;;2.57;2.00;;;;;;;22.49;50.10;98752.81;6946817;28;20680;-77
2022/06/07 01:30:15;;;;;;;2.97;2.13;;;;;;;22.55;49.85;98745.38;6946586;28;20310;-77
2022/06/07 01:33:36;;;;;;;2.37;2.00;;;;;;;22.83;50.13;98739.16;6946578;28;20211;-77
2022/06/07 01:36:59;;;;;;;4.13;2.50;;;;;;;22.79;50.39;98736.16;6945594;28;20201;-77
2022/06/07 01:44:01;;;;;;;4.80;2.30;;;;;;;22.43;51.30;98737.44;6946485;28;20192;-77
2022/06/07 01:47:24;;;;;;;2.10;2.00;;;;;;;22.43;50.87;98731.94;6946762;28;20502;-77
2022/06/07 01:50:46;;;;;;;2.20;2.00;;;;;;;22.74;50.39;98738.09;6946394;28;20317;-77
2022/06/07 01:54:07;;;;;;;2.67;2.47;;;;;;;22.46;50.67;98711.34;6946604;28;20711;-77
2022/06/07 01:57:31;;;;;;;2.40;2.20;;;;;;;22.54;50.95;98741.78;6946293;28;20713;-77
2022/06/07 02:00:53;;;;;;;4.20;2.20;;;;;;;22.51;51.04;98731.38;6946147;28;20248;-77
2022/06/07 02:04:15;;;;;;;4.10;2.23;;;;;;;22.56;51.09;98725.03;6946313;28;20272;-77
2022/06/07 02:07:37;;;;;;;5.93;3.10;;;;;;;22.53;51.32;98737.41;6944787;28;20296;-77
2022/06/07 02:11:05;;;;;;;3.17;2.00;;;;;;;22.50;51.11;98732.50;6946349;28;20233;-77
2022/06/07 02:14:29;;;;;;;2.43;2.23;;;;;;;22.64;50.59;98728.00;6946111;28;20207;-77
2022/06/07 02:17:51;;;;;;;2.30;2.10;;;;;;;22.46;50.93;98725.06;6945039;28;20243;-77
2022/06/07 02:21:12;;;;;;;1.97;1.87;;;;;;;22.34;51.31;98708.91;6946752;28;20284;-78
2022/06/07 02:24:34;;;;;;;2.27;2.07;;;;;;;21.69;52.83;98689.97;6946963;28;20234;-78
2022/06/07 02:27:56;;;;;;;1.90;1.80;;;;;;;22.07;51.97;98718.66;6946469;28;20355;-78
2022/06/07 02:31:19;;;;;;;3.13;2.00;;;;;;;22.11;51.94;98717.81;6947206;28;20641;-78
2022/06/07 02:34:42;;;;;;;2.97;2.40;;;;;;;21.84;52.97;98708.31;6946675;28;20285;-78
2022/06/07 02:38:04;;;;;;;2.00;1.80;;;;;;;21.95;49.36;98709.91;6945053;28;20207;-79
2022/06/07 02:41:26;;;;;;;2.10;1.90;;;;;;;21.40;51.38;98683.41;6946652;28;20381;-78
2022/06/07 02:44:48;;;;;;;1.80;1.70;;;;;;;21.54;48.69;98700.94;6946549;28;20719;-78
2022/06/07 02:48:11;;;;;;;2.60;1.77;;;;;;;21.82;47.98;98686.63;6945976;28;20730;-78
2022/06/07 02:51:32;;;;;;;1.90;1.73;;;;;;;21.89;48.67;98670.66;6945894;28;20233;-78
2022/06/07 02:54:54;;;;;;;3.13;1.83;;;;;;;22.14;49.55;98691.72;6945554;28;20350;-78
2022/06/07 02:58:16;;;;;;;2.40;2.00;;;;;;;22.10;49.71;98676.88;6946000;28;20261;-78
2022/06/07 03:01:37;;;;;;;1.90;1.80;;;;;;;22.15;50.51;98685.09;6946553;28;20309;-78
2022/06/07 03:05:00;;;;;;;2.50;2.30;;;;;;;22.07;51.46;98677.47;6947595;28;20764;-78
2022/06/07 03:08:22;;;;;;;5.00;1.83;;;;;;;21.95;51.33;98688.75;6933440;28;20816;-78
2022/06/07 03:11:43;;;;;;;2.13;1.93;;;;;;;21.53;52.35;98669.13;6920089;28;20310;-78
2022/06/07 03:15:06;;;;;;;2.87;2.10;;;;;;;21.80;52.51;98696.22;6920287;28;20242;-78
2022/06/07 03:18:27;;;;;;;2.30;2.10;;;;;;;21.71;52.90;98687.75;6919719;28;20691;-79
2022/06/07 03:21:51;;;;;;;2.90;2.17;;;;;;;21.81;52.38;98698.72;6925647;28;20728;-78
2022/06/07 03:25:12;;;;;;;2.40;2.20;;;;;;;21.79;52.47;98702.81;6926151;28;20250;-78
2022/06/07 03:28:34;;;;;;;2.57;2.13;;;;;;;21.78;52.69;98680.03;6924744;28;20220;-77
2022/06/07 03:31:56;;;;;;;2.43;2.20;;;;;;;21.74;52.81;98692.69;6925658;28;20724;-78
2022/06/07 03:35:17;;;;;;;3.00;2.53;;;;;;;21.82;52.97;98702.25;6925544;28;20243;-78
2022/06/07 03:38:41;;;;;;;3.20;2.33;;;;;;;21.63;54.04;98704.78;6923297;28;20211;-78
2022/06/07 03:42:03;;;;;;;3.43;2.10;;;;;;;21.55;54.34;98694.34;6925618;28;20236;-78
2022/06/07 03:45:25;;;;;;;3.70;2.73;;;;;;;21.66;53.54;98689.66;6939638;28;20270;-78
2022/06/07 03:48:47;;;;;;;3.00;2.10;;;;;;;21.61;53.24;98670.47;6937569;28;20231;-77
2022/06/07 03:52:08;;;;;;;2.30;2.10;;;;;;;21.62;52.97;98670.19;6926061;28;20305;-78
2022/06/07 03:55:31;;;;;;;2.13;1.97;;;;;;;21.81;53.13;98701.44;6967291;28;20199;-78
2022/06/07 03:58:53;;;;;;;4.50;3.17;;;;;;;21.84;53.44;98692.63;6967393;28;20207;-79
2022/06/07 04:02:15;;;;;;;2.87;2.53;;;;;;;21.73;53.84;98682.00;6953930;28;20296;-78
2022/06/07 04:05:40;;;;;;;2.33;2.17;;;;;;;21.95;53.02;98699.75;6951541;28;20571;-78
2022/06/07 04:09:03;;;;;;;2.63;1.97;;;;;;;22.05;52.80;98699.72;6950431;28;20297;-78
2022/06/07 04:12:26;;;;;;;4.23;1.93;;;;;;;21.78;53.76;98692.97;6950719;28;20226;-78
2022/06/07 04:15:48;;;;;;;2.40;2.20;;;;;;;21.85;53.65;98698.97;6950811;28;20206;-78
2022/06/07 04:19:10;;;;;;;2.20;2.00;;;;;;;21.89;53.05;98680.84;6949671;28;20206;-78
2022/06/07 04:22:31;;;;;;;2.10;2.00;;;;;;;21.69;52.79;98669.91;6938954;28;20220;-77
2022/06/07 04:25:53;;;;;;;2.30;2.10;;;;;;;21.69;53.08;98684.47;6949316;28;20204;-78
2022/06/07 04:29:16;;;;;;;1.80;1.70;;;;;;;21.88;52.45;98668.19;6948573;28;20218;-78
2022/06/07 04:32:39;;;;;;;1.93;1.80;;;;;;;22.09;51.70;98687.06;6948170;28;20261;-77
2022/06/07 04:36:00;;;;;;;1.97;1.87;;;;;;;21.89;52.00;98678.09;6949264;28;20222;-77
2022/06/07 04:39:22;;;;;;;2.83;1.83;;;;;;;21.90;50.82;98664.06;6947426;28;20206;-77
2022/06/07 04:42:44;;;;;;;1.80;1.70;;;;;;;22.16;50.58;98693.06;6948838;28;20265;-77
2022/06/07 04:46:09;;;;;;;2.50;2.03;;;;;;;21.91;51.33;98673.13;6949530;28;20545;-78
2022/06/07 04:49:31;;;;;;;2.20;2.00;;;;;;;22.06;51.71;98701.34;6948130;28;20223;-79
2022/06/07 04:52:52;;;;;;;1.90;1.80;;;;;;;21.80;52.99;98704.47;6948988;28;20242;-80
2022/06/07 04:56:17;;;;;;;3.63;2.13;;;;;;;21.91;53.31;98708.81;6950282;28;20215;-78
2022/06/07 04:59:38;;;;;;;2.53;2.20;;;;;;;21.91;53.20;98700.59;6950069;28;20253;-78
2022/06/07 05:03:01;;;;;;;3.93;2.10;;;;;;;21.84;53.85;98702.81;6950694;28;20260;-78
2022/06/07 05:06:24;;;;;;;2.53;2.23;;;;;;;22.05;52.71;98718.09;6950152;28;20212;-79
2022/06/07 05:09:47;;;;;;;1.90;1.80;;;;;;;22.16;52.68;98695.81;6944768;28;20719;-79
2022/06/07 05:13:09;;;;;;;2.17;2.07;;;;;;;22.19;52.35;98702.66;6949631;28;20230;-78
2022/06/07 05:16:31;;;;;;;3.03;1.90;;;;;;;22.42;52.27;98716.53;6947763;28;20262;-78
2022/06/07 05:19:54;;;;;;;2.27;2.00;;;;;;;22.46;52.21;98723.16;6947565;28;20298;-78
2022/06/07 05:23:15;;;;;;;2.20;2.00;;;;;;;22.45;51.89;98729.75;6948384;28;20262;-77
2022/06/07 05:26:39;;;;;;;2.57;2.00;;;;;;;22.53;51.91;98726.41;6940559;28;20210;-77
2022/06/07 05:30:01;;;;;;;2.23;1.87;;;;;;;22.51;51.84;98711.31;6946610;28;20264;-78
2022/06/07 05:33:22;;;;;;;4.53;2.20;;;;;;;22.48;51.86;98729.19;6944085;28;20204;-78
2022/06/07 05:36:45;;;;;;;2.40;2.10;;;;;;;22.62;51.35;98743.13;6948349;28;20305;-78
2022/06/07 05:40:08;;;;;;;2.27;2.17;;;;;;;22.53;51.86;98739.34;6948332;28;20341;-78
2022/06/07 05:43:30;;;;;;;1.73;1.63;;;;;;;22.46;52.61;98758.03;6944762;28;20662;-77
2022/06/07 05:46:52;;;;;;;2.53;2.23;;;;;;;22.39;52.82;98760.25;6945777;28;20207;-77
2022/06/07 05:50:14;;;;;;;2.57;2.30;;;;;;;22.52;52.56;98745.91;6945920;28;20305;-77
2022/06/07 05:53:38;;;;;;;3.40;2.20;;;;;;;22.41;53.19;98753.38;6946978;28;20241;-78
2022/06/07 05:56:59;;;;;;;2.30;2.10;;;;;;;22.40;53.08;98759.97;6947391;28;20210;-77
2022/06/07 06:00:24;;;;;;;4.53;2.50;;;;;;;22.44;52.95;98754.78;6945628;28;20321;-78
2022/06/07 06:03:46;;;;;;;2.27;2.17;;;;;;;22.52;53.13;98760.50;6947302;28;20187;-78
2022/06/07 06:07:07;;;;;;;3.00;2.70;;;;;;;22.53;52.96;98758.59;6946169;28;20237;-78
2022/06/07 06:10:29;;;;;;;2.23;2.13;;;;;;;22.41;53.36;98744.28;6947336;28;20270;-78
2022/06/07 06:13:51;;;;;;;2.50;2.13;;;;;;;22.40;52.55;98706.94;6947298;28;20267;-78
2022/06/07 06:17:13;;;;;;;2.57;2.10;;;;;;;22.84;52.02;98749.03;6946145;28;20301;-78
2022/06/07 06:20:36;;;;;;;4.37;2.30;;;;;;;23.11;50.81;98750.22;6945516;28;20599;-78
2022/06/07 06:23:58;;;;;;;2.67;2.13;;;;;;;23.01;51.45;98750.28;6948490;28;20208;-78
2022/06/07 06:27:21;;;;;;;3.37;1.90;;;;;;;23.20;50.69;98743.00;6948525;28;20618;-78
2022/06/07 06:30:44;;;;;;;3.37;1.90;;;;;;;23.55;50.23;98742.69;6948134;28;20274;-78
2022/06/07 06:34:06;;;;;;;3.60;2.10;;;;;;;23.72;50.28;98737.56;6948280;28;20203;-78
2022/06/07 06:37:28;;;;;;;2.57;2.37;;;;;;;23.55;49.21;98737.19;6949586;28;20206;-78
2022/06/07 06:40:50;;;;;;;2.23;1.93;;;;;;;23.29;49.42;98748.69;6948343;28;20587;-78
2022/06/07 06:44:13;;;;;;;2.57;1.93;;;;;;;23.27;50.10;98721.50;6932871;28;20230;-78
2022/06/07 06:47:35;;;;;;;5.20;1.93;;;;;;;24.04;48.46;98748.81;6946992;28;20243;-78
2022/06/07 06:51:00;;;;;;;3.30;2.00;;;;;;;24.54;46.85;98731.63;6949505;28;20711;-78
2022/06/07 06:54:22;;;;;;;3.50;1.90;;;;;;;24.61;44.20;98751.41;6950776;28;20736;-78
2022/06/07 06:57:44;;;;;;;1.60;1.50;;;;;;;26.10;43.34;98751.97;6953905;28;20214;-78
2022/06/07 07:01:09;;;;;;;3.70;1.80;;;;;;;25.95;41.27;98746.78;6954511;28;20572;-78
2022/06/07 07:04:30;;;;;;;1.70;1.60;;;;;;;26.13;41.38;98757.72;6954705;28;20624;-78
2022/06/07 07:07:53;;;;;;;3.93;1.70;;;;;;;25.34;41.28;98727.69;6954012;28;20287;-78
2022/06/07 07:11:17;;;;;;;5.13;1.97;;;;;;;25.48;41.03;98755.34;6954374;28;20309;-78
2022/06/07 07:14:38;;;;;;;2.63;1.60;;;;;;;25.11;41.26;98750.66;6953723;28;20664;-78
2022/06/07 07:18:01;;;;;;;1.53;1.47;;;;;;;25.38;41.26;98764.63;6953639;28;20237;-78
2022/06/07 07:21:26;;;;;;;1.73;1.50;;;;;;;25.48;40.88;98753.38;6953413;28;20233;-78
2022/06/07 07:24:47;;;;;;;1.60;1.50;;;;;;;25.10;40.18;98739.91;6953482;28;20213;-78
2022/06/07 07:28:09;;;;;;;3.53;1.60;;;;;;;25.00;40.75;98740.91;6954162;28;20238;-78
2022/06/07 07:31:32;;;;;;;3.00;1.70;;;;;;;24.95;40.95;98726.38;6953007;28;20256;-78
2022/06/07 07:34:55;;;;;;;4.33;1.70;;;;;;;25.56;40.67;98754.63;6949487;28;20207;-78
2022/06/07 07:38:17;;;;;;;3.50;1.73;;;;;;;25.17;41.68;98752.22;6952753;28;20297;-78
2022/06/07 07:41:39;;;;;;;5.70;1.63;;;;;;;25.99;39.43;98748.59;6953501;28;20692;-78
2022/06/07 07:45:01;;;;;;;1.60;1.50;;;;;;;25.87;38.67;98739.13;6952000;28;20209;-78
2022/06/07 07:48:23;;;;;;;2.97;1.97;;;;;;;26.20;39.29;98737.97;6953106;28;20190;-78
2022/06/07 07:51:48;;;;;;;4.47;1.40;;;;;;;26.52;37.86;98746.13;6952743;28;20273;-78
2022/06/07 07:55:11;;;;;;;1.80;1.40;;;;;;;25.13;38.23;98744.84;6953206;28;20769;-78
2022/06/07 07:58:32;;;;;;;1.43;1.33;;;;;;;24.60;39.51;98721.41;6952406;28;20208;-77
2022/06/07 08:01:54;;;;;;;2.37;1.40;;;;;;;25.39;38.97;98713.81;6952298;28;20318;-78
2022/06/07 08:05:15;;;;;;;1.53;1.43;;;;;;;25.60;39.32;98723.34;6949467;28;20197;-78
2022/06/07 08:08:39;;;;;;;1.63;1.50;;;;;;;25.94;37.21;98743.16;6924759;28;20250;-78
2022/06/07 08:12:05;;;;;;;2.60;1.33;;;;;;;25.86;36.75;98721.75;6924736;28;20232;-78
2022/06/07 08:15:29;;;;;;;2.43;1.17;;;;;;;26.90;35.57;98728.16;6934032;28;20191;-78
2022/06/07 08:18:51;;;;;;;10.50;5.00;;;;;;;26.47;36.19;98729.63;6949888;28;20203;-79
2022/06/07 08:22:13;;;;;;;5.90;2.80;;;;;;;26.66;36.17;98741.44;6942903;28;20272;-79
2022/06/07 08:25:38;;;;;;;4.60;3.40;;;;;;;27.28;36.00;98715.59;6923743;28;20265;-78
2022/06/07 08:29:00;;;;;;;2.33;1.63;;;;;;;27.37;35.24;98730.34;6929648;28;20207;-77
2022/06/07 08:32:21;;;;;;;1.70;1.30;;;;;;;26.56;36.38;98714.81;6949710;28;20224;-78
2022/06/07 08:39:26;;;;;;;2.20;1.77;;;;;;;26.48;37.09;98704.44;6946644;28;20208;-78
2022/06/07 08:42:52;;;;;;;5.57;1.80;;;;;;;26.08;36.85;98737.66;6949872;28;20257;-77
2022/06/07 08:46:15;;;;;;;1.60;1.50;;;;;;;26.16;36.96;98723.94;6950739;28;20674;-78
2022/06/07 08:49:36;;;;;;;2.13;1.70;;;;;;;25.92;37.21;98690.19;6950077;28;20705;-78
2022/06/07 08:53:01;;;;;;;1.70;1.60;;;;;;;25.81;38.76;98727.38;6950958;28;20331;-78
2022/06/07 08:56:26;;;;;;;2.57;1.43;;;;;;;26.68;36.46;98717.03;6942375;28;20636;-78
2022/06/07 08:59:53;;;;;;;1.53;1.43;;;;;;;27.04;36.19;98715.06;6920691;28;20574;-78
2022/06/07 09:03:29;;;;;;;1.40;1.30;;;;;;;27.50;34.44;98698.97;6945874;28;20733;-79
2022/06/07 09:06:52;;;;;;;3.83;1.50;;;;;;;26.31;37.09;98706.22;6948216;28;20191;-79
2022/06/07 09:13:56;;;;;;;2.50;1.37;;;;;;;28.37;34.09;98694.34;6951433;28;20567;-78
2022/06/07 09:17:21;;;;;;;1.43;1.33;;;;;;;27.48;35.75;98687.41;6954489;28;20671;-79
2022/06/07 09:20:45;;;;;;;3.70;1.70;;;;;;;28.24;34.17;98684.97;6962871;28;20215;-81
2022/06/07 09:24:11;;;;;;;1.83;1.30;;;;;;;28.20;34.07;98677.63;6941565;28;20211;-82
2022/06/07 09:27:34;;;;;;;1.50;1.40;;;;;;;27.79;35.64;98677.97;6954329;28;20187;-79
2022/06/07 09:30:59;;;;;;;2.93;1.77;;;;;;;28.32;33.82;98658.41;6956056;28;20257;-78
2022/06/07 09:34:27;;;;;;;2.63;1.73;;;;;;;28.11;34.95;98671.22;6953564;28;20211;-78
2022/06/07 09:37:52;;;;;;;5.57;1.80;;;;;;;26.26;36.52;98634.44;6952002;28;20194;-79
2022/06/07 09:44:58;;;;;;;2.10;1.60;;;;;;;25.58;39.04;98669.53;6943192;28;20242;-78
2022/06/07 09:48:26;;;;;;;2.30;1.77;;;;;;;24.90;39.40;98663.81;6950809;28;20272;-79
2022/06/07 09:51:48;;;;;;;2.33;1.60;;;;;;;25.94;38.08;98640.13;6964841;28;20226;-80
2022/06/07 09:55:21;;;;;;;1.50;1.40;;;;;;;25.42;39.55;98663.50;6968447;28;20253;-80
2022/06/07 09:58:56;;;;;;;4.47;1.87;;;;;;;24.99;40.56;98675.81;6963217;28;20203;-80
2022/06/07 10:02:47;;;;;;;1.77;1.53;;;;;;;24.83;41.55;98674.41;6968381;28;20223;-79
2022/06/07 10:06:14;;;;;;;1.90;1.57;;;;;;;25.29;40.08;98667.03;6969462;28;20212;-79
2022/06/07 10:09:49;;;;;;;2.37;1.63;;;;;;;25.40;39.61;98662.16;6969526;28;20233;-79
2022/06/07 10:13:20;;;;;;;1.60;1.50;;;;;;;25.53;39.44;98664.09;6968134;28;20214;-80
2022/06/07 10:16:49;;;;;;;3.43;1.50;;;;;;;26.05;37.39;98609.22;6965438;28;20645;-83
2022/06/07 10:20:22;;;;;;;1.50;1.17;;;;;;;26.39;36.78;98656.53;6933780;28;20307;-80
2022/06/07 10:24:07;;;;;;;1.70;1.33;;;;;;;26.86;35.53;98655.19;6947880;28;20229;-79
2022/06/07 10:27:35;;;;;;;1.90;1.67;;;;;;;26.67;36.20;98616.63;6947930;28;20273;-80
2022/06/07 10:31:00;;;;;;;3.23;1.60;;;;;;;27.04;37.09;98660.53;6951769;28;20257;-80
2022/06/07 10:34:30;;;;;;;1.60;1.50;;;;;;;26.90;37.85;98653.44;6953222;28;20335;-79
2022/06/07 10:38:01;;;;;;;3.17;2.00;;;;;;;26.96;38.16;98650.22;6953162;28;20203;-80
2022/06/07 10:41:29;;;;;;;2.23;1.70;;;;;;;26.93;38.32;98647.25;6953275;28;20260;-79
2022/06/07 10:45:04;;;;;;;1.90;1.77;;;;;;;27.08;38.10;98644.91;6953100;28;20209;-80
2022/06/07 10:48:32;;;;;;;1.70;1.57;;;;;;;26.79;37.88;98618.84;6952246;28;20235;-79
2022/06/07 10:55:39;;;;;;;1.83;1.70;;;;;;;27.99;36.52;98630.28;6952592;28;20205;-79
2022/06/07 10:59:03;;;;;;;1.87;1.77;;;;;;;27.95;35.80;98628.47;6951760;28;20286;-78
2022/06/07 11:02:31;;;;;;;1.87;1.73;;;;;;;27.31;36.88;98631.91;6952010;28;20223;-78
2022/06/07 11:09:38;;;;;;;1.60;1.50;;;;;;;26.95;36.05;98620.91;6951705;28;20255;-78
2022/06/07 11:13:05;;;;;;;3.00;1.50;;;;;;;27.49;34.84;98628.91;6951991;28;20275;-78
2022/06/07 11:16:31;;;;;;;3.10;1.73;;;;;;;27.26;36.61;98627.31;6941464;28;20225;-78
2022/06/07 11:19:55;;;;;;;2.10;1.90;;;;;;;27.02;36.74;98609.41;6940175;28;20686;-79
2022/06/07 11:23:20;;;;;;;4.10;1.70;;;;;;;27.66;37.05;98609.59;6949700;28;20315;-78
2022/06/07 11:27:04;;;;;;;2.67;1.53;;;;;;;28.38;34.98;98601.66;6931896;28;20199;-78
2022/06/07 11:30:44;;;;;;;1.77;1.40;;;;;;;28.70;33.71;98590.06;6951429;28;20230;-78
2022/06/07 11:34:13;;;;;;;1.70;1.50;;;;;;;27.82;34.10;98607.22;6951381;28;20258;-78
2022/06/07 11:37:36;;;;;;;1.70;1.60;;;;;;;28.09;35.67;98595.88;6951234;28;20647;-78
2022/06/07 11:44:59;;;;;;;1.70;1.60;;;;;;;27.69;34.39;98594.28;6952536;28;20192;-78
2022/06/07 11:48:27;;;;;;;2.53;1.10;;;;;;;26.80;34.57;98571.50;6951717;28;20248;-77
2022/06/07 11:51:53;;;;;;;1.40;1.30;;;;;;;26.84;35.05;98561.41;6952035;28;20635;-78
2022/06/07 11:55:19;;;;;;;1.50;1.40;;;;;;;26.64;36.03;98578.53;6952171;28;20203;-78
2022/06/07 11:58:55;;;;;;;1.53;1.40;;;;;;;27.13;35.65;98588.63;6951132;28;20673;-78
2022/06/07 12:02:30;;;;;;;3.63;1.30;;;;;;;27.57;35.28;98583.00;6934521;28;20313;-78
2022/06/07 12:05:54;;;;;;;4.00;1.40;;;;;;;27.71;35.06;98554.03;6923776;28;20192;-78
2022/06/07 12:09:17;;;;;;;2.17;1.17;;;;;;;27.81;35.53;98587.03;6923082;28;20703;-77
2022/06/07 12:12:40;;;;;;;1.47;1.37;;;;;;;27.19;35.37;98579.09;6924258;28;20682;-78
2022/06/07 12:16:02;;;;;;;1.70;1.60;;;;;;;27.37;34.99;98575.25;6925275;28;20857;-78
2022/06/07 12:19:25;;;;;;;2.50;1.40;;;;;;;27.96;34.27;98569.13;6925818;28;20405;-78
2022/06/07 12:22:47;;;;;;;2.73;1.40;;;;;;;26.83;34.97;98567.28;6923879;28;20719;-78
2022/06/07 12:26:19;;;;;;;1.50;1.40;;;;;;;26.65;36.05;98562.78;6923291;28;20294;-78
2022/06/07 12:29:44;;;;;;;1.20;1.10;;;;;;;27.27;35.27;98568.06;6923159;28;20763;-78
2022/06/07 12:33:18;;;;;;;1.40;1.30;;;;;;;27.25;36.10;98564.78;6923454;28;20199;-78
2022/06/07 12:36:40;;;;;;;2.33;1.50;;;;;;;26.98;36.40;98561.34;6927097;28;20241;-78
2022/06/07 12:40:02;;;;;;;1.47;1.37;;;;;;;27.15;36.19;98553.13;6922872;28;20222;-78
2022/06/07 12:43:26;;;;;;;1.63;1.53;;;;;;;27.35;35.79;98564.50;6925341;28;20239;-77
2022/06/07 12:46:50;;;;;;;2.97;1.33;;;;;;;26.51;35.55;98543.44;6949947;28;20208;-78
2022/06/07 12:50:19;;;;;;;1.57;1.47;;;;;;;26.20;37.31;98547.25;6950572;28;20226;-78
2022/06/07 12:53:41;;;;;;;2.50;1.60;;;;;;;26.83;36.21;98554.25;6950258;28;20279;-78
2022/06/07 12:57:06;;;;;;;1.40;1.30;;;;;;;27.12;35.29;98543.50;6938894;28;20215;-78
2022/06/07 13:00:31;;;;;;;2.23;1.33;;;;;;;26.53;36.33;98543.94;6922268;28;20225;-77
2022/06/07 13:03:57;;;;;;;1.43;1.37;;;;;;;26.79;36.02;98536.63;6923303;28;20300;-78
2022/06/07 13:07:22;;;;;;;2.77;1.33;;;;;;;26.83;35.30;98542.38;6949590;28;20198;-78
2022/06/07 13:10:44;;;;;;;1.60;1.50;;;;;;;26.98;35.91;98540.03;6949846;28;20292;-78
2022/06/07 13:14:07;;;;;;;1.97;1.60;;;;;;;27.89;33.57;98539.09;6946172;28;20275;-78
2022/06/07 13:17:31;;;;;;;2.90;1.90;;;;;;;26.34;35.88;98536.94;6945204;28;20199;-78
2022/06/07 13:21:11;;;;;;;1.40;1.30;;;;;;;27.06;34.26;98536.47;6950608;28;20704;-78
2022/06/07 13:24:41;;;;;;;3.07;1.60;;;;;;;27.46;33.71;98540.94;6951462;28;20699;-77
2022/06/07 13:28:06;;;;;;;2.23;1.80;;;;;;;26.58;34.77;98531.94;6966126;28;20274;-78
2022/06/07 13:31:29;;;;;;;2.53;1.67;;;;;;;26.11;35.12;98485.53;6967441;28;20228;-77
2022/06/07 13:34:53;;;;;;;3.67;1.63;;;;;;;27.70;34.06;98496.16;6942148;28;20674;-78
2022/06/07 13:38:29;;;;;;;2.17;1.67;;;;;;;27.84;33.65;98502.44;6968882;28;20661;-78
2022/06/07 13:41:54;;;;;;;1.70;1.60;;;;;;;28.69;31.87;98516.28;6969416;28;20246;-78
2022/06/07 13:45:46;;;;;;;1.80;1.40;;;;;;;27.57;33.66;98516.50;7026854;27;20559;-77
2022/06/07 13:56:38;;;;;;;3.93;1.50;;;;;;;28.77;31.93;98494.06;6973186;28;20683;-78
2022/06/07 14:00:00;;;;;;;1.40;1.30;;;;;;;28.93;32.44;98481.31;6986732;28;20241;-78
2022/06/07 14:03:31;;;;;;;4.17;1.40;;;;;;;29.14;31.87;98498.88;6998683;28;20391;-77
2022/06/07 14:06:53;;;;;;;2.30;1.30;;;;;;;28.39;31.50;98497.91;6998511;28;20197;-77
2022/06/07 14:10:15;;;;;;;5.03;1.73;;;;;;;28.02;32.71;98501.31;6997226;28;20226;-77
2022/06/07 14:13:38;;;;;;;1.40;1.30;;;;;;;28.92;32.48;98496.34;6975116;28;20213;-77
2022/06/07 14:17:01;;;;;;;1.87;1.70;;;;;;;28.97;32.09;98495.34;6976296;28;20636;-77
2022/06/07 14:20:25;;;;;;;4.17;1.60;;;;;;;27.99;32.77;98499.16;6997853;28;20229;-78
2022/06/07 14:23:46;;;;;;;3.00;1.60;;;;;;;27.97;33.44;98479.28;6997541;28;20230;-78
2022/06/07 14:27:12;;;;;;;2.13;1.57;;;;;;;28.60;32.59;98488.56;6997623;28;20240;-78
2022/06/07 14:30:35;;;;;;;2.37;1.23;;;;;;;28.12;31.03;98484.31;6974701;28;20288;-77
2022/06/07 14:33:57;;;;;;;2.20;1.77;;;;;;;27.25;33.16;98454.03;6970141;28;20274;-77
2022/06/07 14:37:21;;;;;;;3.00;1.80;;;;;;;26.64;34.88;98490.03;6969564;28;20240;-78
2022/06/07 14:40:43;;;;;;;1.60;1.50;;;;;;;27.22;33.71;98476.00;6968897;28;20226;-78
2022/06/07 14:44:05;;;;;;;2.13;1.43;;;;;;;27.90;33.45;98481.72;6976500;28;20225;-77
2022/06/07 14:47:27;;;;;;;1.60;1.50;;;;;;;27.19;34.59;98490.50;6980525;28;20210;-77
2022/06/07 14:50:48;;;;;;;1.27;1.10;;;;;;;27.88;33.62;98476.50;6977668;28;20279;-77
2022/06/07 14:54:22;;;;;;;1.60;1.43;;;;;;;27.56;34.31;98478.88;6966899;28;20280;-77
2022/06/07 14:57:47;;;;;;;1.50;1.30;;;;;;;27.90;33.53;98481.72;6950346;28;20192;-77
2022/06/07 15:01:10;;;;;;;2.50;1.30;;;;;;;27.84;33.87;98471.94;6974087;28;20226;-77
2022/06/07 15:04:36;;;;;;;1.73;1.40;;;;;;;27.97;33.28;98474.56;6975844;28;20412;-78
2022/06/07 15:08:00;;;;;;;3.17;1.70;;;;;;;27.73;32.59;98467.81;6949894;28;20205;-77
2022/06/07 15:11:32;;;;;;;2.53;1.70;;;;;;;26.76;33.75;98454.28;6950384;28;20223;-77
2022/06/07 15:14:54;;;;;;;1.67;1.40;;;;;;;27.81;33.19;98467.03;6950615;28;20197;-77
2022/06/07 15:18:17;;;;;;;2.50;1.30;;;;;;;27.17;33.69;98460.38;6950011;28;20703;-77
2022/06/07 15:21:40;;;;;;;1.73;1.37;;;;;;;26.43;34.93;98447.41;6950010;28;20238;-78
2022/06/07 15:25:02;;;;;;;3.93;1.67;;;;;;;26.90;33.72;98465.28;6949659;28;20232;-77
2022/06/07 15:28:26;;;;;;;1.20;1.10;;;;;;;27.88;32.61;98457.09;6949628;28;20617;-77
2022/06/07 15:31:48;;;;;;;1.53;1.40;;;;;;;28.21;32.33;98460.19;6949934;28;20219;-77
2022/06/07 15:35:13;;;;;;;1.00;1.00;;;;;;;27.40;32.87;98458.31;6950317;28;20218;-77
2022/06/07 15:38:35;;;;;;;1.33;1.20;;;;;;;27.15;32.81;98443.25;6964516;28;20211;-77
2022/06/07 15:45:39;;;;;;;1.93;1.07;;;;;;;27.68;32.66;98456.91;6963750;28;20227;-77
2022/06/07 15:49:01;;;;;;;2.03;1.27;;;;;;;27.59;32.19;98431.13;6962278;28;20199;-77
2022/06/07 15:52:23;;;;;;;1.90;1.30;;;;;;;28.69;30.87;98456.06;6973719;28;20231;-77
2022/06/07 15:55:45;;;;;;;2.07;1.10;;;;;;;27.73;31.84;98438.16;6976797;28;20198;-78
2022/06/07 15:59:06;;;;;;;2.33;1.90;;;;;;;27.82;32.50;98444.56;6975886;28;20210;-77
2022/06/07 16:02:29;;;;;;;2.40;1.40;;;;;;;27.91;32.11;98442.63;6976786;28;20400;-77
2022/06/07 16:05:51;;;;;;;2.23;1.20;;;;;;;27.88;32.68;98446.03;6976127;28;20237;-78
2022/06/07 16:09:14;;;;;;;1.07;1.07;;;;;;;27.93;32.26;98433.94;6970701;28;20363;-77
2022/06/07 16:12:36;;;;;;;2.27;1.33;;;;;;;27.83;33.00;98445.38;6971440;28;20305;-78
2022/06/07 16:16:00;;;;;;;1.43;1.33;;;;;;;27.94;32.83;98449.44;6976439;28;20222;-77
2022/06/07 16:19:22;;;;;;;11.67;8.00;;;;;;;27.87;33.56;98454.66;6947373;28;20771;-77
2022/06/07 16:22:44;;;;;;;2.73;2.40;;;;;;;28.08;33.06;98444.56;6948433;28;20199;-77
2022/06/07 16:26:06;;;;;;;1.93;1.47;;;;;;;27.67;35.67;98435.88;6948365;28;20566;-77
2022/06/07 16:33:19;;;;;;;2.80;1.47;;;;;;;26.58;40.05;98455.34;6949200;28;20561;-79
2022/06/07 16:36:43;;;;;;;2.83;1.50;;;;;;;26.58;41.25;98468.34;6953080;28;20192;-77
2022/06/07 16:40:05;;;;;;;1.90;1.57;;;;;;;26.21;42.27;98458.50;6948792;28;20707;-77
2022/06/07 16:47:21;;;;;;;3.67;1.63;;;;;;;25.86;44.16;98469.53;6972432;28;20206;-77
2022/06/07 16:50:43;;;;;;;1.43;1.33;;;;;;;26.06;43.73;98472.66;6887832;28;20760;-78